Breezy Point, Minnesota
Current Conditions -  °F | °C
As of 6:54 AM on Wednesday 22 Oct 2014 (Local Time) from KPWC Reporting Station
Clear Clear  
Wind Chill: 35°   Ceiling: Unl
Heat Index: 43°   Visibility: 10mi
Dew Point: 37°   Wind: 15mph
Humidity: 81%   Direction: 150°SSE
Pressure: 30.1"   Gusts: NA
Location:  46.6832°N, 94.2515°W
Report Text: KPWC 221154Z AUTO 15013KT 10SM CLR 06/03 A3010 RMK AO2
Loading
Personal Weather Stations






























Interactive Weather Map
Tropical Storm Tracking
New forecast layout! Learn more

10-Day Weather Forecast

Advertisements
Track Severe Weather on mobile